L M Clayton Airport
KOLF : rendu visible

Aérodrome :











RETROUVEZ-NOUS SUR...

 
LOGIN :

S'inscrire | Disclaimer

   EN    FR    IT 

 









Légende :    VFR   VFR Marginal   IFR   IFR Intensif   IFR Très Intensif
Visi : 
Plafond : 
>= 8 km
>= 3000ft
5 à 8 km
1000 à 3000 ft
1500m à 5 km
500 à 1000 ft
800 à 1500m
200 à 500 ft
< 800m
< 200 ft
Symboles :   Orages  Brouillard  Fortes neiges  Fortes précipitations  Vent > 20 kt






- Altitude de l'aérodrome : 1986 ft


KOLF - L M Clayton

DERNIER METAR :
  • 190453Z AUTO 09004KT 10SM CLR M21/M25 A3055 RMK AO2 SLP407 T12111250

METARs EXPIRÉS :
  • 190353Z AUTO 11003KT 10SM CLR M20/M24 A3055 RMK AO2 SLP403 T12001244
  • 190253Z AUTO 03005KT 10SM CLR M19/M24 A3053 RMK AO2 SLP397 T11941244 51011

TAF KOLF
Valide du 19 à 00h jusqu'au 20 à 00h UTC


182332Z 1900/1924 VRB03KT P6SM SCT090
FM192300 VRB04KT P6SM FEW017



MET'MAP, la Météo Aéronautique d'un coup d'oeil ! - Copyright ORBIFLY Décembre 2007 - Disclaimer

ORBIFLY MET'MAP TEAM :

Programmation & Développement : Alexandra Zaïnal
Sur une idée originale de : Baudouin d'Aumeries
Assistance à la programmation : Marc-Olivier Méhu
Soutien technique & logistique : Manuel Goepfert

Contact : metmap@orbifly.com




SOURCES & CREDITS :

   NOAA       Earth
Advisory